createdAt,value
2022-12-20T00:00:10.377Z,1.62262
2022-12-20T00:01:18.032Z,1.662903
2022-12-20T00:02:27.823Z,1.672974
2022-12-20T00:03:37.449Z,1.662903
2022-12-20T00:04:46.112Z,1.683044
2022-12-20T00:05:55.779Z,1.683044
2022-12-20T00:07:04.491Z,1.713257
2022-12-20T00:08:14.091Z,1.733398
2022-12-20T00:09:22.771Z,1.743469
2022-12-20T00:10:30.420Z,1.743469
2022-12-20T00:11:40.090Z,1.733398
2022-12-20T00:12:48.762Z,1.743469
2022-12-20T00:13:57.434Z,1.733398
2022-12-20T00:15:07.173Z,1.733398
2022-12-20T00:16:15.826Z,1.733398
2022-12-20T00:17:24.580Z,1.733398
2022-12-20T00:18:34.150Z,1.743469
2022-12-20T00:19:43.820Z,1.773682
2022-12-20T00:20:53.496Z,1.854248
2022-12-20T00:22:02.172Z,1.844177
2022-12-20T00:23:11.844Z,1.88446
2022-12-20T00:24:26.007Z,1.88446
2022-12-20T00:25:31.147Z,1.894531
2022-12-20T00:26:40.829Z,1.894531
2022-12-20T00:27:50.519Z,1.914673
2022-12-20T00:28:58.180Z,1.924744
2022-12-20T00:30:07.855Z,1.954956
2022-12-20T00:31:17.584Z,1.954956
2022-12-20T00:32:26.195Z,1.954956
2022-12-20T00:33:35.897Z,1.954956
2022-12-20T00:34:44.566Z,1.954956
2022-12-20T00:35:54.241Z,1.944885
2022-12-20T00:37:03.900Z,1.924744
2022-12-20T00:38:12.637Z,1.944885
2022-12-20T00:39:22.326Z,1.965027
2022-12-20T00:40:32.007Z,1.954956
2022-12-20T00:41:40.663Z,1.965027
2022-12-20T00:42:50.343Z,1.944885
2022-12-20T00:43:58.048Z,1.944885
2022-12-20T00:45:06.701Z,1.965027
2022-12-20T00:46:16.378Z,1.954956
2022-12-20T00:47:25.987Z,1.965027
2022-12-20T00:48:35.652Z,1.985168
2022-12-20T00:49:43.311Z,2.015381
2022-12-20T00:50:52.973Z,2.055664
2022-12-20T00:52:01.636Z,2.075806
2022-12-20T00:53:09.300Z,2.075806
2022-12-20T00:54:19.956Z,2.13623
2022-12-20T00:55:28.659Z,2.166443
2022-12-20T00:56:38.309Z,2.196655
2022-12-20T00:57:48.021Z,2.176514
2022-12-20T00:58:56.680Z,2.216797
2022-12-20T01:00:05.359Z,2.247009
2022-12-20T01:02:48.488Z,2.236938
2022-12-20T01:03:58.146Z,2.236938
2022-12-20T01:05:06.825Z,2.236938
2022-12-20T01:06:15.532Z,2.236938
2022-12-20T01:07:25.239Z,2.196655
2022-12-20T01:08:33.916Z,2.216797
2022-12-20T01:09:42.614Z,2.216797
2022-12-20T01:10:52.354Z,2.236938
2022-12-20T01:12:01.028Z,2.277222
2022-12-20T01:13:10.781Z,2.327576
2022-12-20T01:14:19.443Z,2.388
2022-12-20T01:15:28.131Z,2.428284
2022-12-20T01:16:37.912Z,2.438354
2022-12-20T01:17:47.496Z,2.458496
2022-12-20T01:18:57.227Z,2.498779
2022-12-20T01:20:06.954Z,2.528992
2022-12-20T01:21:15.632Z,2.559204
2022-12-20T01:22:25.372Z,2.559204
2022-12-20T01:23:34.071Z,2.569275
2022-12-20T01:24:42.797Z,2.619629
2022-12-20T01:25:52.491Z,2.639771
2022-12-20T01:27:01.264Z,2.639771
2022-12-20T01:28:09.917Z,2.649841
2022-12-20T01:29:19.592Z,2.649841
2022-12-20T01:30:27.334Z,2.669983
2022-12-20T01:31:37.051Z,2.669983
2022-12-20T01:32:45.702Z,2.690125
2022-12-20T01:33:53.451Z,2.680054
2022-12-20T01:35:03.074Z,2.680054
2022-12-20T01:36:10.764Z,2.680054
2022-12-20T01:37:19.433Z,2.690125
2022-12-20T01:38:29.158Z,2.680054
2022-12-20T01:39:37.822Z,2.690125
2022-12-20T01:40:47.509Z,2.680054
2022-12-20T01:41:57.274Z,2.649841
2022-12-20T01:43:04.969Z,2.669983
2022-12-20T01:44:14.647Z,2.619629
2022-12-20T01:45:24.319Z,2.619629
2022-12-20T01:46:33.050Z,2.639771
2022-12-20T01:47:42.790Z,2.669983
2022-12-20T01:48:50.506Z,2.690125
2022-12-20T01:50:00.200Z,2.720337
2022-12-20T01:51:08.878Z,2.740479
2022-12-20T01:52:18.564Z,2.750549
2022-12-20T01:53:28.236Z,2.740479
2022-12-20T01:54:35.939Z,2.740479
2022-12-20T01:55:45.589Z,2.750549
2022-12-20T01:56:55.293Z,2.710266
2022-12-20T01:58:03.980Z,2.690125
2022-12-20T01:59:13.688Z,2.690125
2022-12-20T02:00:23.485Z,2.690125
2022-12-20T02:01:31.479Z,2.680054
2022-12-20T02:02:41.342Z,2.669983
2022-12-20T02:03:50.538Z,2.669983
2022-12-20T02:05:00.371Z,2.669983
2022-12-20T02:06:08.205Z,2.669983
2022-12-20T02:07:18.058Z,2.649841
2022-12-20T02:08:27.943Z,2.680054
2022-12-20T02:09:36.935Z,2.680054
2022-12-20T02:10:46.821Z,2.680054
2022-12-20T02:11:56.634Z,2.690125
2022-12-20T02:13:06.402Z,2.690125
2022-12-20T02:14:16.213Z,2.710266
2022-12-20T02:15:25.133Z,2.680054
2022-12-20T02:16:35.085Z,2.690125
2022-12-20T02:17:44.122Z,2.639771
2022-12-20T02:18:53.000Z,2.649841
2022-12-20T02:20:02.794Z,2.690125
2022-12-20T02:21:11.654Z,2.710266
2022-12-20T02:22:20.414Z,2.710266
2022-12-20T02:23:30.237Z,2.680054
2022-12-20T02:24:39.112Z,2.639771
2022-12-20T02:25:48.991Z,2.639771
2022-12-20T02:26:57.836Z,2.669983
2022-12-20T02:28:07.641Z,2.639771
2022-12-20T02:29:17.455Z,2.649841
2022-12-20T02:30:26.273Z,2.639771
2022-12-20T02:31:35.062Z,2.649841
2022-12-20T02:32:44.812Z,2.649841
2022-12-20T02:33:54.643Z,2.619629
2022-12-20T02:35:04.463Z,2.649841
2022-12-20T02:36:14.227Z,2.649841
2022-12-20T02:37:22.974Z,2.639771
2022-12-20T02:38:32.782Z,2.649841
2022-12-20T02:39:41.626Z,2.649841
2022-12-20T02:40:50.558Z,2.639771
2022-12-20T02:42:00.321Z,2.619629
2022-12-20T02:43:10.148Z,2.619629
2022-12-20T02:44:19.913Z,2.619629
2022-12-20T02:45:28.873Z,2.609558
2022-12-20T02:46:38.540Z,2.619629
2022-12-20T02:47:48.297Z,2.619629
2022-12-20T02:48:57.053Z,2.619629
2022-12-20T02:50:06.778Z,2.649841
2022-12-20T02:51:15.633Z,2.619629
2022-12-20T02:52:25.306Z,2.619629
2022-12-20T02:53:36.216Z,2.609558
2022-12-20T02:54:46.128Z,2.569275
2022-12-20T02:55:55.852Z,2.559204
2022-12-20T02:57:04.621Z,2.569275
2022-12-20T02:58:13.334Z,2.599487
2022-12-20T02:59:23.121Z,2.619629
2022-12-20T03:00:31.865Z,2.619629
2022-12-20T03:01:41.851Z,2.619629
2022-12-20T03:02:51.605Z,2.619629
2022-12-20T03:03:59.213Z,2.639771
2022-12-20T03:05:08.987Z,2.639771
2022-12-20T03:06:17.779Z,2.639771
2022-12-20T03:07:26.516Z,2.619629
2022-12-20T03:08:35.405Z,2.599487
2022-12-20T03:09:43.179Z,2.569275
2022-12-20T03:10:52.899Z,2.599487
2022-12-20T03:12:02.921Z,2.609558
2022-12-20T03:13:12.636Z,2.609558
2022-12-20T03:14:22.360Z,2.609558
2022-12-20T03:15:32.051Z,2.599487
2022-12-20T03:16:39.780Z,2.569275
2022-12-20T03:17:49.485Z,2.569275
2022-12-20T03:18:59.135Z,2.559204
2022-12-20T03:20:08.826Z,2.559204
2022-12-20T03:21:18.543Z,2.539062
2022-12-20T03:22:27.215Z,2.528992
2022-12-20T03:23:36.980Z,2.50885
2022-12-20T03:24:45.884Z,2.528992
2022-12-20T03:25:54.609Z,2.559204
2022-12-20T03:27:04.302Z,2.559204
2022-12-20T03:28:13.190Z,2.539062
2022-12-20T03:29:22.976Z,2.528992
2022-12-20T03:30:32.734Z,2.559204
2022-12-20T03:31:41.470Z,2.559204
2022-12-20T03:32:51.302Z,2.559204
2022-12-20T03:34:01.049Z,2.569275
2022-12-20T03:35:09.929Z,2.599487
2022-12-20T03:36:19.643Z,2.599487
2022-12-20T03:37:28.367Z,2.599487
2022-12-20T03:38:37.086Z,2.599487
2022-12-20T03:39:46.852Z,2.569275
2022-12-20T03:40:55.563Z,2.599487
2022-12-20T03:42:05.306Z,2.559204
2022-12-20T03:43:15.041Z,2.599487
2022-12-20T03:44:23.817Z,2.569275
2022-12-20T03:45:32.516Z,2.559204
2022-12-20T03:46:40.276Z,2.569275
2022-12-20T03:47:49.914Z,2.559204
2022-12-20T03:48:59.654Z,2.569275
2022-12-20T03:50:09.432Z,2.609558
2022-12-20T03:51:19.129Z,2.669983
2022-12-20T03:52:27.851Z,2.690125
2022-12-20T03:53:35.551Z,2.690125
2022-12-20T03:54:45.298Z,2.690125
2022-12-20T03:55:53.020Z,2.720337
2022-12-20T03:57:01.756Z,2.740479
2022-12-20T03:58:11.423Z,2.740479
2022-12-20T03:59:20.165Z,2.750549
2022-12-20T04:00:29.926Z,2.800903
2022-12-20T04:01:38.965Z,2.821045
2022-12-20T04:02:46.574Z,2.800903
2022-12-20T04:03:56.253Z,2.800903
2022-12-20T04:05:04.937Z,2.790833
2022-12-20T04:06:12.773Z,2.800903
2022-12-20T04:07:22.515Z,2.821045
2022-12-20T04:08:32.293Z,2.800903
2022-12-20T04:09:42.090Z,2.800903
2022-12-20T04:10:50.839Z,2.800903
2022-12-20T04:11:58.610Z,2.800903
2022-12-20T04:13:08.397Z,2.800903
2022-12-20T04:14:16.251Z,2.800903
2022-12-20T04:15:26.074Z,2.790833
2022-12-20T04:16:35.942Z,2.800903
2022-12-20T04:17:44.603Z,2.790833
2022-12-20T04:18:54.473Z,2.790833
2022-12-20T04:20:04.292Z,2.800903
2022-12-20T04:21:13.056Z,2.800903
2022-12-20T04:22:22.814Z,2.770691
2022-12-20T04:23:31.569Z,2.790833
2022-12-20T04:24:40.395Z,2.790833
2022-12-20T04:25:50.182Z,2.790833
2022-12-20T04:26:58.938Z,2.800903
2022-12-20T04:28:08.798Z,2.831116
2022-12-20T04:29:17.667Z,2.851257
2022-12-20T04:30:25.547Z,2.851257
2022-12-20T04:31:35.399Z,2.861328
2022-12-20T04:32:45.125Z,2.871399
2022-12-20T04:33:54.860Z,2.921753
2022-12-20T04:35:04.671Z,2.931824
2022-12-20T04:36:12.472Z,2.921753
2022-12-20T04:37:22.235Z,2.921753
2022-12-20T04:38:32.016Z,2.972107
2022-12-20T04:39:41.768Z,2.951965
2022-12-20T04:40:51.567Z,2.921753
2022-12-20T04:42:00.452Z,2.901611
2022-12-20T04:43:10.217Z,2.901611
2022-12-20T04:44:18.967Z,2.871399
2022-12-20T04:45:27.700Z,2.901611
2022-12-20T04:46:37.560Z,2.921753
2022-12-20T04:47:46.281Z,2.901611
2022-12-20T04:48:58.697Z,2.931824
2022-12-20T04:50:05.795Z,2.921753
2022-12-20T04:51:15.525Z,2.901611
2022-12-20T04:52:25.419Z,2.901611
2022-12-20T04:53:33.155Z,2.931824
2022-12-20T04:54:42.939Z,2.931824
2022-12-20T04:55:52.644Z,2.931824
2022-12-20T04:57:02.417Z,2.931824
2022-12-20T04:58:12.184Z,2.901611
2022-12-20T04:59:20.914Z,2.891541
2022-12-20T05:00:28.636Z,2.871399
2022-12-20T05:01:38.502Z,2.861328
2022-12-20T05:02:47.261Z,2.821045
2022-12-20T05:03:57.034Z,2.831116
2022-12-20T05:05:06.637Z,2.821045
2022-12-20T05:06:16.402Z,2.871399
2022-12-20T05:07:25.126Z,2.871399
2022-12-20T05:08:33.894Z,2.891541
2022-12-20T05:09:41.676Z,2.871399
2022-12-20T05:10:51.459Z,2.871399
2022-12-20T05:12:00.216Z,2.861328
2022-12-20T05:13:09.996Z,2.891541
2022-12-20T05:14:19.739Z,2.891541
2022-12-20T05:15:27.494Z,2.891541
2022-12-20T05:16:37.321Z,2.901611
2022-12-20T05:17:45.940Z,2.901611
2022-12-20T05:18:54.695Z,2.901611
2022-12-20T05:20:05.285Z,2.901611
2022-12-20T05:21:13.040Z,2.931824
2022-12-20T05:22:21.711Z,2.921753
2022-12-20T05:23:31.395Z,2.972107
2022-12-20T05:24:40.074Z,2.982178
2022-12-20T05:25:49.722Z,3.01239
2022-12-20T05:26:59.443Z,3.032532
2022-12-20T05:28:08.155Z,3.032532
2022-12-20T05:29:17.870Z,3.002319
2022-12-20T05:30:26.560Z,3.002319
2022-12-20T05:31:36.291Z,2.972107
2022-12-20T05:32:46.023Z,2.982178
2022-12-20T05:33:54.736Z,3.01239
2022-12-20T05:35:04.837Z,3.042603
2022-12-20T05:36:13.515Z,3.072815
2022-12-20T05:37:22.220Z,3.072815
2022-12-20T05:38:31.933Z,3.072815
2022-12-20T05:39:40.623Z,3.072815
2022-12-20T05:40:49.333Z,3.042603
2022-12-20T05:41:59.049Z,3.052673
2022-12-20T05:43:07.772Z,3.103027
2022-12-20T05:44:17.546Z,3.103027
2022-12-20T05:45:27.239Z,3.113098
2022-12-20T05:46:34.943Z,3.13324
2022-12-20T05:47:44.597Z,3.13324
2022-12-20T05:48:53.276Z,3.13324
2022-12-20T05:50:02.029Z,3.13324
2022-12-20T05:51:12.699Z,3.163452
2022-12-20T05:52:20.388Z,3.13324
2022-12-20T05:53:30.078Z,3.13324
2022-12-20T05:54:37.732Z,3.113098
2022-12-20T05:55:46.432Z,3.13324
2022-12-20T05:56:56.131Z,3.143311
2022-12-20T05:58:05.449Z,3.163452
2022-12-20T05:59:15.469Z,3.143311
2022-12-20T06:00:25.124Z,3.13324
2022-12-20T06:01:34.929Z,3.103027
2022-12-20T06:02:44.636Z,3.082886
2022-12-20T06:03:53.309Z,3.082886
2022-12-20T06:05:00.899Z,3.082886
2022-12-20T06:06:14.333Z,3.072815
2022-12-20T06:07:20.298Z,3.052673
2022-12-20T06:08:28.974Z,3.042603
2022-12-20T06:09:38.664Z,3.052673
2022-12-20T06:10:48.335Z,3.01239
2022-12-20T06:11:58.007Z,3.032532
2022-12-20T06:13:07.785Z,3.052673
2022-12-20T06:14:17.526Z,3.042603
2022-12-20T06:15:28.200Z,3.052673
2022-12-20T06:16:35.907Z,3.052673
2022-12-20T06:17:44.558Z,3.072815
2022-12-20T06:18:54.287Z,3.042603
2022-12-20T06:20:01.956Z,3.032532
2022-12-20T06:21:11.627Z,3.042603
2022-12-20T06:22:20.341Z,3.042603
2022-12-20T06:23:30.046Z,3.032532
2022-12-20T06:24:44.444Z,3.072815
2022-12-20T06:25:49.516Z,3.103027
2022-12-20T06:26:59.168Z,3.13324
2022-12-20T06:28:08.853Z,3.193665
2022-12-20T06:29:16.505Z,3.213806
2022-12-20T06:30:30.375Z,3.193665
2022-12-20T06:31:35.899Z,3.223877
2022-12-20T06:32:44.575Z,3.223877
2022-12-20T06:33:54.301Z,3.213806
2022-12-20T06:35:01.954Z,3.223877
2022-12-20T06:36:10.630Z,3.223877
2022-12-20T06:37:21.286Z,3.223877
2022-12-20T06:38:29.937Z,3.193665
2022-12-20T06:39:39.600Z,3.193665
2022-12-20T06:40:48.256Z,3.193665
2022-12-20T06:41:58.020Z,3.193665
2022-12-20T06:43:06.915Z,3.193665
2022-12-20T06:44:15.581Z,3.183594
2022-12-20T06:45:25.355Z,3.163452
2022-12-20T06:46:34.977Z,3.143311
2022-12-20T06:47:44.646Z,3.183594
2022-12-20T06:48:54.347Z,3.213806
2022-12-20T06:50:02.023Z,3.223877
2022-12-20T06:51:11.678Z,3.213806
2022-12-20T06:52:20.339Z,3.213806
2022-12-20T06:53:30.055Z,3.213806
2022-12-20T06:54:39.728Z,3.223877
2022-12-20T06:55:48.563Z,3.213806
2022-12-20T06:56:57.153Z,3.193665
2022-12-20T06:58:07.830Z,3.163452
2022-12-20T06:59:16.521Z,3.163452
2022-12-20T07:00:27.200Z,3.183594
2022-12-20T07:01:35.989Z,3.183594
2022-12-20T07:02:45.663Z,3.193665
2022-12-20T07:03:54.276Z,3.183594
2022-12-20T07:05:02.932Z,3.213806
2022-12-20T07:06:11.591Z,3.233948
2022-12-20T07:07:21.293Z,3.254089
2022-12-20T07:08:28.974Z,3.294373
2022-12-20T07:09:38.627Z,3.324585
2022-12-20T07:10:48.328Z,3.344727
2022-12-20T07:11:56.119Z,3.344727
2022-12-20T07:13:05.829Z,3.364868
2022-12-20T07:14:14.530Z,3.364868
2022-12-20T07:15:23.243Z,3.374939
2022-12-20T07:16:33.992Z,3.395081
2022-12-20T07:17:42.574Z,3.374939
2022-12-20T07:18:52.288Z,3.405151
2022-12-20T07:20:04.232Z,3.435364
2022-12-20T07:21:12.558Z,3.415222
2022-12-20T07:22:22.303Z,3.415222
2022-12-20T07:23:30.982Z,3.415222
2022-12-20T07:24:40.671Z,3.435364
2022-12-20T07:25:50.379Z,3.445435
2022-12-20T07:26:58.014Z,3.465576
2022-12-20T07:28:07.745Z,3.526001
2022-12-20T07:29:16.489Z,3.556213
2022-12-20T07:30:27.130Z,3.616638
2022-12-20T07:31:36.807Z,3.596497
2022-12-20T07:32:45.454Z,3.626709
2022-12-20T07:33:55.177Z,3.656921
2022-12-20T07:35:04.837Z,3.677063
2022-12-20T07:36:12.543Z,3.697205
2022-12-20T07:37:22.272Z,3.737488
2022-12-20T07:38:30.929Z,3.757629
2022-12-20T07:39:39.631Z,3.757629
2022-12-20T07:40:49.321Z,3.757629
2022-12-20T07:41:58.031Z,3.757629
2022-12-20T07:43:06.704Z,3.737488
2022-12-20T07:44:16.356Z,3.727417
2022-12-20T07:45:24.017Z,3.737488
2022-12-20T07:46:32.792Z,3.7677
2022-12-20T07:47:42.419Z,3.7677
2022-12-20T07:48:50.041Z,3.777771
2022-12-20T07:49:59.814Z,3.828125
2022-12-20T07:51:09.445Z,3.838196
2022-12-20T07:52:19.133Z,3.858337
2022-12-20T07:53:29.864Z,3.838196
2022-12-20T07:54:37.586Z,3.838196
2022-12-20T07:55:47.245Z,3.868408
2022-12-20T07:56:55.914Z,3.878479
2022-12-20T07:58:03.573Z,3.878479
2022-12-20T07:59:13.231Z,3.908691
2022-12-20T08:00:21.901Z,3.868408
2022-12-20T08:01:30.737Z,3.878479
2022-12-20T08:02:40.473Z,3.918762
2022-12-20T08:03:49.031Z,3.918762
2022-12-20T08:04:58.673Z,3.908691
2022-12-20T08:06:07.391Z,3.948975
2022-12-20T08:07:16.042Z,3.959045
2022-12-20T08:08:25.754Z,3.959045
2022-12-20T08:09:33.430Z,3.979187
2022-12-20T08:10:42.115Z,3.989258
2022-12-20T08:11:51.775Z,4.01947
2022-12-20T08:12:59.441Z,4.01947
2022-12-20T08:14:09.120Z,4.049683
2022-12-20T08:15:18.875Z,4.079895
2022-12-20T08:16:26.603Z,4.100037
2022-12-20T08:17:36.188Z,4.130249
2022-12-20T08:18:44.856Z,4.14032
2022-12-20T08:19:54.541Z,4.190674
2022-12-20T08:21:04.206Z,4.200745
2022-12-20T08:22:12.918Z,4.220886
2022-12-20T08:23:22.556Z,4.230957
2022-12-20T08:24:32.244Z,4.261169
2022-12-20T08:25:41.928Z,4.261169
2022-12-20T08:26:50.596Z,4.281311
2022-12-20T08:27:59.259Z,4.311523
2022-12-20T08:29:08.937Z,4.311523
2022-12-20T08:30:18.613Z,4.321594
2022-12-20T08:31:27.338Z,4.311523
2022-12-20T08:32:36.944Z,4.341736
2022-12-20T08:33:46.621Z,4.341736
2022-12-20T08:34:55.308Z,4.341736
2022-12-20T08:36:05.005Z,4.371948
2022-12-20T08:37:14.904Z,4.382019
2022-12-20T08:38:21.258Z,4.402161
2022-12-20T08:39:30.907Z,4.371948
2022-12-20T08:40:40.563Z,4.371948
2022-12-20T08:41:50.247Z,4.382019
2022-12-20T08:42:57.936Z,4.402161
2022-12-20T08:44:07.569Z,4.382019
2022-12-20T08:45:17.232Z,4.412231
2022-12-20T08:46:25.957Z,4.442444
2022-12-20T08:47:35.615Z,4.442444
2022-12-20T08:48:44.226Z,4.422302
2022-12-20T08:49:53.954Z,4.452515
2022-12-20T08:51:03.793Z,4.482727
2022-12-20T08:52:11.346Z,4.482727
2022-12-20T08:53:21.062Z,4.482727
2022-12-20T08:54:30.735Z,4.442444
2022-12-20T08:55:39.387Z,4.452515
2022-12-20T08:56:49.057Z,4.492798
2022-12-20T08:57:57.735Z,4.502869
2022-12-20T08:59:07.469Z,4.533081
2022-12-20T09:00:17.187Z,4.553223
2022-12-20T09:01:25.933Z,4.533081
2022-12-20T09:02:35.674Z,4.52301
2022-12-20T09:03:44.257Z,4.533081
2022-12-20T09:04:52.832Z,4.553223
2022-12-20T09:06:02.514Z,4.553223
2022-12-20T09:07:11.200Z,4.553223
2022-12-20T09:08:20.873Z,4.563293
2022-12-20T09:09:30.536Z,4.563293
2022-12-20T09:10:38.236Z,4.593506
2022-12-20T09:11:47.899Z,4.593506
2022-12-20T09:12:58.553Z,4.593506
2022-12-20T09:14:07.267Z,4.623718
2022-12-20T09:15:16.949Z,4.623718
2022-12-20T09:16:24.686Z,4.633789
2022-12-20T09:17:34.350Z,4.674072
2022-12-20T09:18:44.021Z,4.714355
2022-12-20T09:19:51.665Z,4.744568
2022-12-20T09:21:01.339Z,4.77478
2022-12-20T09:22:09.997Z,4.804993
2022-12-20T09:23:18.700Z,4.855347
2022-12-20T09:24:28.345Z,4.89563
2022-12-20T09:25:36.020Z,4.915771
2022-12-20T09:26:46.728Z,4.956055
2022-12-20T09:27:56.345Z,4.986267
2022-12-20T09:29:04.055Z,4.996338
2022-12-20T09:30:13.727Z,5.016479
2022-12-20T09:31:23.463Z,5.046692
2022-12-20T09:32:31.054Z,5.066833
2022-12-20T09:33:40.792Z,5.076904
2022-12-20T09:34:49.500Z,5.117188
2022-12-20T09:35:58.181Z,5.117188
2022-12-20T09:37:07.861Z,5.117188
2022-12-20T09:38:16.599Z,5.137329
2022-12-20T09:39:26.259Z,5.197754
2022-12-20T09:40:35.920Z,5.227966
2022-12-20T09:41:44.609Z,5.27832
2022-12-20T09:42:54.323Z,5.298462
2022-12-20T09:44:03.985Z,5.298462
2022-12-20T09:45:12.661Z,5.328674
2022-12-20T09:46:22.525Z,5.328674
2022-12-20T09:47:30.109Z,5.358887
2022-12-20T09:48:39.805Z,5.379028
2022-12-20T09:49:49.522Z,5.429382
2022-12-20T09:50:57.134Z,5.479736
2022-12-20T09:52:06.870Z,5.509949
2022-12-20T09:53:18.410Z,5.540161
2022-12-20T09:54:24.194Z,5.53009
2022-12-20T09:55:33.886Z,5.560303
2022-12-20T09:56:43.581Z,5.540161
2022-12-20T09:57:53.260Z,5.540161
2022-12-20T09:59:01.953Z,5.560303
2022-12-20T10:00:10.619Z,5.610657
2022-12-20T10:01:24.844Z,5.610657
2022-12-20T10:03:02.377Z,5.590515
2022-12-20T10:03:41.792Z,5.570374
2022-12-20T10:04:51.420Z,5.610657
2022-12-20T10:06:01.142Z,5.640869
2022-12-20T10:07:10.664Z,5.681152
2022-12-20T10:08:19.324Z,5.711365
2022-12-20T10:09:27.042Z,5.731506
2022-12-20T10:10:36.717Z,5.761719
2022-12-20T10:11:50.382Z,5.761719
2022-12-20T10:12:55.048Z,5.802002
2022-12-20T10:14:04.812Z,5.791931
2022-12-20T10:15:13.484Z,5.822144
2022-12-20T10:16:23.312Z,5.892639
2022-12-20T10:17:32.663Z,5.973206
2022-12-20T10:18:39.610Z,6.02356
2022-12-20T10:19:48.332Z,6.043701
2022-12-20T10:20:58.024Z,6.083984
2022-12-20T10:22:06.706Z,6.124268
2022-12-20T10:23:16.359Z,6.174622
2022-12-20T10:24:27.092Z,6.235046
2022-12-20T10:25:36.750Z,6.295471
2022-12-20T10:26:45.426Z,6.325684
2022-12-20T10:27:54.112Z,6.355896
2022-12-20T10:29:03.842Z,6.386108
2022-12-20T10:30:12.659Z,6.376038
2022-12-20T10:31:21.416Z,6.40625
2022-12-20T10:32:31.049Z,6.416321
2022-12-20T10:33:39.756Z,6.416321
2022-12-20T10:34:49.411Z,6.476746
2022-12-20T10:35:57.074Z,6.517029
2022-12-20T10:37:06.755Z,6.517029
2022-12-20T10:38:16.854Z,6.506958
2022-12-20T10:39:25.642Z,6.517029
2022-12-20T10:41:01.932Z,6.53717
2022-12-20T10:41:46.006Z,6.557312
2022-12-20T10:42:54.675Z,6.506958
2022-12-20T10:44:03.376Z,6.486816
2022-12-20T10:45:11.064Z,6.517029
2022-12-20T10:46:20.869Z,6.557312
2022-12-20T10:47:30.389Z,6.587524
2022-12-20T10:48:40.068Z,6.627808
2022-12-20T10:49:49.773Z,6.688232
2022-12-20T10:50:57.429Z,6.668091
2022-12-20T10:52:08.107Z,6.688232
2022-12-20T10:53:17.788Z,6.668091
2022-12-20T10:54:26.458Z,6.688232
2022-12-20T10:55:36.168Z,6.668091
2022-12-20T10:56:44.875Z,6.668091
2022-12-20T10:57:52.545Z,6.738586
2022-12-20T10:59:02.253Z,6.77887
2022-12-20T11:00:12.135Z,6.839294
2022-12-20T11:01:21.978Z,6.809082
2022-12-20T11:02:39.164Z,6.839294
2022-12-20T11:03:42.380Z,6.849365
2022-12-20T11:04:52.004Z,6.869507
2022-12-20T11:06:00.706Z,6.889648
2022-12-20T11:07:09.414Z,6.960144
2022-12-20T11:09:29.754Z,7.070923
2022-12-20T11:10:39.423Z,7.141418
2022-12-20T11:11:49.109Z,7.201843
2022-12-20T11:12:57.800Z,7.211914
2022-12-20T11:14:07.537Z,7.201843
2022-12-20T11:15:17.345Z,7.201843
2022-12-20T11:16:28.091Z,7.211914
2022-12-20T11:17:37.729Z,7.242126
2022-12-20T11:18:47.515Z,7.211914
2022-12-20T11:19:57.202Z,7.201843
2022-12-20T11:21:11.231Z,7.201843
2022-12-20T11:22:17.569Z,7.211914
2022-12-20T11:23:27.330Z,7.242126
2022-12-20T11:24:36.045Z,7.332764
2022-12-20T11:25:45.754Z,7.393188
2022-12-20T11:26:55.438Z,7.503967
2022-12-20T11:28:04.132Z,7.514038
2022-12-20T11:29:13.815Z,7.53418
2022-12-20T11:30:23.506Z,7.574463
2022-12-20T11:31:31.393Z,7.584534
2022-12-20T11:32:46.618Z,7.655029
2022-12-20T11:33:50.745Z,7.725525
2022-12-20T11:34:59.431Z,7.765808
2022-12-20T11:36:09.153Z,7.826233
2022-12-20T11:37:16.800Z,7.876587
2022-12-20T11:38:25.516Z,7.896729
2022-12-20T11:39:35.234Z,7.906799
2022-12-20T11:40:44.920Z,7.906799
2022-12-20T11:41:54.627Z,7.896729
2022-12-20T11:43:03.321Z,7.926941
2022-12-20T11:44:27.369Z,7.846375
2022-12-20T11:45:21.653Z,7.826233
2022-12-20T11:46:31.379Z,7.826233
2022-12-20T11:47:41.032Z,7.876587
2022-12-20T11:48:50.755Z,7.926941
2022-12-20T11:50:00.396Z,7.977295
2022-12-20T11:51:15.111Z,8.047791
2022-12-20T11:52:20.763Z,8.098145
2022-12-20T11:53:29.440Z,8.188782
2022-12-20T11:54:39.139Z,8.198853
2022-12-20T11:55:47.819Z,8.239136
2022-12-20T11:56:57.498Z,8.259277
2022-12-20T11:58:18.410Z,8.279419
2022-12-20T11:59:17.842Z,8.329773
2022-12-20T12:00:26.520Z,8.440552
2022-12-20T12:01:36.348Z,8.511047
2022-12-20T12:02:46.150Z,8.561401
2022-12-20T12:03:56.686Z,8.531189
2022-12-20T12:05:06.468Z,8.581543
2022-12-20T12:06:15.135Z,8.611755
2022-12-20T12:07:25.796Z,8.581543
2022-12-20T12:08:35.541Z,8.531189
2022-12-20T12:09:45.200Z,8.511047
2022-12-20T12:10:54.898Z,8.460693
2022-12-20T12:12:07.068Z,8.460693
2022-12-20T12:13:13.315Z,8.460693
2022-12-20T12:14:21.976Z,8.480835
2022-12-20T12:15:30.652Z,8.521118
2022-12-20T12:16:40.485Z,8.511047
2022-12-20T12:17:49.108Z,8.551331
2022-12-20T12:18:58.818Z,8.611755
2022-12-20T12:20:08.492Z,8.641968
2022-12-20T12:21:17.175Z,8.662109
2022-12-20T12:22:26.943Z,8.662109
2022-12-20T12:23:35.672Z,8.702393
2022-12-20T12:24:45.381Z,8.732605
2022-12-20T12:25:55.063Z,8.742676
2022-12-20T12:27:03.741Z,8.762817
2022-12-20T12:28:13.401Z,8.712463
2022-12-20T12:29:22.128Z,8.762817
2022-12-20T12:30:30.795Z,8.782959
2022-12-20T12:31:40.498Z,8.79303
2022-12-20T12:32:50.172Z,8.732605
2022-12-20T12:33:58.873Z,8.732605
2022-12-20T12:35:08.566Z,8.742676
2022-12-20T12:36:18.212Z,8.732605
2022-12-20T12:37:27.893Z,8.581543
2022-12-20T12:38:36.633Z,8.521118
2022-12-20T12:39:44.430Z,8.490906
2022-12-20T12:40:53.275Z,8.440552
2022-12-20T12:42:01.808Z,8.450623
2022-12-20T12:43:10.479Z,8.42041
2022-12-20T12:44:18.213Z,8.440552
2022-12-20T12:45:27.971Z,8.450623
2022-12-20T12:46:36.716Z,8.450623
2022-12-20T12:47:45.291Z,8.460693
2022-12-20T12:48:54.967Z,8.450623
2022-12-20T12:50:04.642Z,8.380127
2022-12-20T12:51:14.391Z,8.339844
2022-12-20T12:52:24.109Z,8.279419
2022-12-20T12:53:32.772Z,8.259277
2022-12-20T12:54:41.441Z,8.229065
2022-12-20T12:55:51.146Z,8.229065
2022-12-20T12:57:01.805Z,8.229065
2022-12-20T12:58:11.502Z,8.239136
2022-12-20T12:59:20.181Z,8.188782
2022-12-20T13:00:28.865Z,8.188782
2022-12-20T13:01:45.843Z,8.188782
2022-12-20T13:02:55.406Z,8.128357
2022-12-20T13:04:03.004Z,8.047791
2022-12-20T13:05:12.712Z,7.926941
2022-12-20T13:06:23.408Z,7.876587
2022-12-20T13:07:32.086Z,7.846375
2022-12-20T13:08:41.854Z,7.796021
2022-12-20T13:09:50.748Z,7.765808
2022-12-20T13:10:59.462Z,7.765808
2022-12-20T13:12:11.840Z,7.765808
2022-12-20T13:13:17.811Z,7.725525
2022-12-20T13:14:27.543Z,7.6651
2022-12-20T13:15:36.212Z,7.685242
2022-12-20T13:17:55.580Z,7.685242
2022-12-20T13:19:04.166Z,7.655029
2022-12-20T13:20:12.852Z,7.634888
2022-12-20T13:21:22.517Z,7.604675
2022-12-20T13:22:31.277Z,7.584534
2022-12-20T13:23:40.929Z,7.54425
2022-12-20T13:24:50.834Z,7.514038
2022-12-20T13:25:59.316Z,7.473755
2022-12-20T13:27:09.002Z,7.473755
2022-12-20T13:28:16.993Z,7.453613
2022-12-20T13:29:26.409Z,7.403259
2022-12-20T13:30:36.149Z,7.322693
2022-12-20T13:31:49.607Z,7.312622
2022-12-20T13:32:55.364Z,7.252197
2022-12-20T13:34:05.028Z,7.242126
2022-12-20T13:35:13.775Z,7.242126
2022-12-20T13:36:23.435Z,7.242126
2022-12-20T13:37:31.114Z,7.242126